Bronte, Texas
Current Conditions -  °F | °C
As of 11:51 AM on Friday 21 Nov 2014 (Local Time) from KSJT Reporting Station
Clear Clear  
Wind Chill: 21°   Ceiling: Unl
Heat Index: 21°   Visibility: 10mi
Dew Point: 12°   Wind: 15mph
Humidity: 57%   Direction: 190°S
Pressure: 30.05"   Gusts: NA
Location:  31.89°N, 100.29°W
Report Text: KSJT 211751Z 19013KT 10SM CLR 21/12 A3005 RMK AO2 SLP166 T02110122 10217 20150 58004
Loading
Personal Weather Stations






























Interactive Weather Map New forecast layout! Learn more

10-Day Weather Forecast

Advertisements
Track Severe Weather on mobile